Time;durP1;ratioP1;P1;durP2;ratioP2;P2;SDS_P1;SDS_P2;PMS_P1;PMS_P2;Temp;Humidity;BMP_temperature;BMP_pressure;BME280_temperature;BME280_humidity;BME280_pressure;Samples;Min_cycle;Max_cycle;Signal;HPM_P1;HPM_P2
2022/04/22 00:02:05;;;;;;;;;;;;;;;17.32;30.07;98504.63;4483224;32;34002;-82
2022/04/22 00:04:33;;;;;;;;;;;;;;;17.20;30.19;98507.56;4483090;32;34355;-84
2022/04/22 00:07:02;;;;;;;;;;;;;;;17.35;29.81;98498.44;4483581;32;33755;-82
2022/04/22 00:09:29;;;;;;;;;;;;;;;17.43;29.83;98486.88;4483564;32;34239;-82
2022/04/22 00:11:56;;;;;;;;;;;;;;;17.55;30.11;98490.09;4483489;32;34342;-82
2022/04/22 00:14:24;;;;;;;;;;;;;;;17.37;30.10;98497.50;4483902;32;32773;-82
2022/04/22 00:16:51;;;;;;;;;;;;;;;17.58;29.68;98483.00;4483153;32;35012;-83
2022/04/22 00:19:19;;;;;;;;;;;;;;;17.51;30.08;98482.31;4483414;32;33580;-82
2022/04/22 00:21:47;;;;;;;;;;;;;;;18.06;29.09;98477.34;4483449;32;33975;-82
2022/04/22 00:24:15;;;;;;;;;;;;;;;18.12;28.93;98471.91;4483673;32;33402;-81
2022/04/22 00:26:43;;;;;;;;;;;;;;;17.95;29.60;98463.66;4483329;32;34325;-82
2022/04/22 00:29:11;;;;;;;;;;;;;;;17.66;30.09;98478.41;4483525;32;35207;-82
2022/04/22 00:31:39;;;;;;;;;;;;;;;17.73;29.92;98479.97;4482951;32;34901;-82
2022/04/22 00:34:06;;;;;;;;;;;;;;;17.65;30.01;98473.19;4483084;32;33348;-82
2022/04/22 00:36:33;;;;;;;;;;;;;;;17.86;29.77;98467.41;4483190;32;34117;-81
2022/04/22 00:39:03;;;;;;;;;;;;;;;17.37;30.84;98468.69;4483389;32;34316;-81
2022/04/22 00:41:32;;;;;;;;;;;;;;;17.31;30.65;98463.59;4483427;32;35122;-83
2022/04/22 00:43:59;;;;;;;;;;;;;;;17.56;30.35;98455.09;4483367;32;33295;-83
2022/04/22 00:46:26;;;;;;;;;;;;;;;17.39;30.81;98448.56;4482831;31;34190;-83
2022/04/22 00:48:54;;;;;;;;;;;;;;;17.27;31.03;98451.47;4483402;32;35207;-82
2022/04/22 00:51:22;;;;;;;;;;;;;;;17.75;30.31;98445.87;4483229;32;34578;-83
2022/04/22 00:53:50;;;;;;;;;;;;;;;17.35;30.82;98444.31;4468232;32;33185;-83
2022/04/22 00:56:18;;;;;;;;;;;;;;;17.73;30.28;98448.53;4468776;32;34771;-82
2022/04/22 00:58:46;;;;;;;;;;;;;;;18.02;29.74;98438.97;4483247;32;34517;-83
2022/04/22 01:01:14;;;;;;;;;;;;;;;17.49;30.80;98450.03;4483126;32;34174;-84
2022/04/22 01:10:01;;;;;;;;;;;;;;;17.89;30.11;98432.38;4467445;32;34382;-83
2022/04/22 01:12:03;;;;;;;;;;;;;;;17.61;31.05;98429.63;4461576;32;34338;-82
2022/04/22 01:14:30;;;;;;;;;;;;;;;17.61;30.79;98438.34;4479138;32;34304;-83
2022/04/22 01:17:00;;;;;;;;;;;;;;;17.92;30.38;98427.06;4468197;32;34053;-83
2022/04/22 01:19:28;;;;;;;;;;;;;;;18.04;30.12;98420.59;4482565;32;34915;-82
2022/04/22 01:21:55;;;;;;;;;;;;;;;17.83;30.15;98411.56;4467428;32;35028;-83
2022/04/22 01:24:23;;;;;;;;;;;;;;;17.78;30.27;98416.09;4471640;32;34211;-83
2022/04/22 01:26:50;;;;;;;;;;;;;;;17.70;29.51;98411.91;4482977;32;34390;-82
2022/04/22 01:29:18;;;;;;;;;;;;;;;17.95;28.63;98417.31;4465994;32;35530;-82
2022/04/22 01:31:46;;;;;;;;;;;;;;;18.03;29.20;98408.37;4480476;32;34879;-81
2022/04/22 01:34:13;;;;;;;;;;;;;;;17.11;29.56;98398.63;4482079;32;33129;-84
2022/04/22 01:36:41;;;;;;;;;;;;;;;17.19;29.25;98398.44;4482770;32;34357;-81
2022/04/22 01:39:08;;;;;;;;;;;;;;;15.58;31.06;98399.44;4482721;32;33926;-82
2022/04/22 01:41:35;;;;;;;;;;;;;;;16.28;30.49;98397.12;4468232;32;34345;-80
2022/04/22 01:44:03;;;;;;;;;;;;;;;16.11;30.47;98394.91;4482752;32;33356;-82
2022/04/22 01:46:30;;;;;;;;;;;;;;;16.10;30.55;98385.34;4481640;32;33873;-82
2022/04/22 01:48:58;;;;;;;;;;;;;;;16.41;30.30;98388.13;4483044;32;35261;-83
2022/04/22 01:51:25;;;;;;;;;;;;;;;16.13;30.79;98376.53;4481646;32;35015;-83
2022/04/22 01:53:53;;;;;;;;;;;;;;;15.96;30.75;98372.56;4479972;32;33667;-83
2022/04/22 01:56:21;;;;;;;;;;;;;;;15.65;31.17;98363.63;4482609;32;33990;-83
2022/04/22 01:58:48;;;;;;;;;;;;;;;15.76;31.20;98359.06;4481274;32;34299;-83
2022/04/22 02:01:16;;;;;;;;;;;;;;;16.06;30.64;98352.28;4481813;32;34195;-83
2022/04/22 02:03:43;;;;;;;;;;;;;;;16.53;30.12;98363.41;4482340;32;34416;-82
2022/04/22 02:06:10;;;;;;;;;;;;;;;16.76;29.99;98368.13;4481635;32;34245;-83
2022/04/22 02:08:38;;;;;;;;;;;;;;;16.40;30.74;98357.63;4467695;32;34448;-83
2022/04/22 02:11:05;;;;;;;;;;;;;;;16.03;31.19;98358.47;4481404;32;34907;-83
2022/04/22 02:13:36;;;;;;;;;;;;;;;16.35;30.62;98362.09;4472872;32;34029;-83
2022/04/22 02:16:07;;;;;;;;;;;;;;;16.44;30.32;98351.44;4481865;32;35086;-83
2022/04/22 02:18:39;;;;;;;;;;;;;;;16.56;30.14;98347.66;4481030;32;35210;-84
2022/04/22 02:21:07;;;;;;;;;;;;;;;16.09;31.40;98348.75;4474818;32;35035;-81
2022/04/22 02:23:34;;;;;;;;;;;;;;;16.47;31.10;98351.31;4467802;32;33309;-83
2022/04/22 02:26:02;;;;;;;;;;;;;;;17.09;29.95;98341.97;4481901;32;34033;-83
2022/04/22 02:28:32;;;;;;;;;;;;;;;16.35;30.58;98356.84;4469053;32;34089;-82
2022/04/22 02:31:03;;;;;;;;;;;;;;;15.81;31.81;98355.44;4482393;32;33819;-81
2022/04/22 02:33:31;;;;;;;;;;;;;;;15.66;31.80;98349.69;4481223;32;32828;-82
2022/04/22 02:35:59;;;;;;;;;;;;;;;15.85;31.55;98365.84;4467449;32;34024;-82
2022/04/22 02:38:27;;;;;;;;;;;;;;;15.79;31.79;98352.00;4481384;32;34189;-82
2022/04/22 02:46:30;;;;;;;;;;;;;;;15.20;32.60;98340.13;4481273;32;33761;-82
2022/04/22 02:49:01;;;;;;;;;;;;;;;15.48;32.34;98332.59;4481610;32;34269;-82
2022/04/22 02:51:28;;;;;;;;;;;;;;;14.72;33.77;98337.50;4467363;32;33358;-81
2022/04/22 02:53:56;;;;;;;;;;;;;;;15.07;32.92;98326.41;4481050;32;33286;-83
2022/04/22 02:56:23;;;;;;;;;;;;;;;15.19;32.85;98327.94;4460880;32;35082;-83
2022/04/22 02:58:51;;;;;;;;;;;;;;;15.33;32.60;98328.53;4467909;32;34117;-82
2022/04/22 03:01:18;;;;;;;;;;;;;;;15.50;32.48;98323.84;4483771;32;34989;-82
2022/04/22 03:03:47;;;;;;;;;;;;;;;15.00;33.13;98323.09;4481493;32;34069;-82
2022/04/22 03:06:14;;;;;;;;;;;;;;;14.95;33.44;98324.91;4483449;32;34593;-81
2022/04/22 03:08:41;;;;;;;;;;;;;;;14.97;33.40;98317.91;4468964;32;33869;-82
2022/04/22 03:11:08;;;;;;;;;;;;;;;15.60;32.86;98313.19;4483614;32;33122;-81
2022/04/22 03:13:39;;;;;;;;;;;;;;;15.05;33.24;98308.19;4483450;32;33466;-83
2022/04/22 03:16:06;;;;;;;;;;;;;;;14.94;33.69;98307.53;4481816;32;34209;-81
2022/04/22 03:18:34;;;;;;;;;;;;;;;14.99;33.58;98313.50;4483091;32;34530;-82
2022/04/22 03:21:01;;;;;;;;;;;;;;;15.03;33.47;98307.34;4469138;32;34326;-82
2022/04/22 03:23:28;;;;;;;;;;;;;;;15.14;33.38;98306.28;4473104;32;33531;-83
2022/04/22 03:25:56;;;;;;;;;;;;;;;14.67;33.98;98298.47;4473908;32;34230;-83
2022/04/22 03:28:23;;;;;;;;;;;;;;;14.56;34.36;98298.63;4478211;32;34557;-84
2022/04/22 03:30:50;;;;;;;;;;;;;;;14.77;34.11;98299.13;4483720;32;34288;-83
2022/04/22 03:33:18;;;;;;;;;;;;;;;14.51;34.58;98290.03;4483215;32;34526;-83
2022/04/22 03:35:50;;;;;;;;;;;;;;;14.53;34.63;98290.84;4483093;32;33728;-82
2022/04/22 03:38:19;;;;;;;;;;;;;;;15.37;33.24;98290.16;4482429;32;34833;-83
2022/04/22 03:40:47;;;;;;;;;;;;;;;14.73;34.30;98287.91;4483520;32;34856;-83
2022/04/22 03:43:14;;;;;;;;;;;;;;;14.06;35.45;98309.84;4483321;32;33412;-82
2022/04/22 03:45:41;;;;;;;;;;;;;;;14.23;35.11;98306.97;4483406;32;34089;-82
2022/04/22 03:48:09;;;;;;;;;;;;;;;14.88;34.13;98288.50;4482476;32;34387;-81
2022/04/22 03:50:37;;;;;;;;;;;;;;;14.72;34.40;98290.53;4483401;32;33694;-83
2022/04/22 03:53:05;;;;;;;;;;;;;;;15.06;33.68;98291.63;4466187;32;33532;-83
2022/04/22 03:55:32;;;;;;;;;;;;;;;14.38;34.47;98296.31;4466276;32;35189;-83
2022/04/22 03:58:12;;;;;;;;;;;;;;;14.43;34.86;98291.00;4470639;32;33951;-83
2022/04/22 04:00:44;;;;;;;;;;;;;;;14.77;34.16;98293.91;4467962;32;34812;-82
2022/04/22 04:03:12;;;;;;;;;;;;;;;14.34;34.93;98294.63;4467608;32;34188;-82
2022/04/22 04:05:40;;;;;;;;;;;;;;;14.18;35.20;98299.25;4467746;32;33662;-83
2022/04/22 04:08:10;;;;;;;;;;;;;;;14.93;34.23;98287.56;4471564;32;35276;-82
2022/04/22 04:16:09;;;;;;;;;;;;;;;15.09;33.79;98288.97;4468175;32;34254;-80
2022/04/22 04:18:39;;;;;;;;;;;;;;;14.57;34.35;98282.09;4466024;32;33997;-80
2022/04/22 04:23:53;;;;;;;;;;;;;;;14.74;34.59;98300.06;4475382;32;33260;-81
2022/04/22 04:26:21;;;;;;;;;;;;;;;14.32;35.06;98301.63;4466589;32;34806;-82
2022/04/22 04:28:49;;;;;;;;;;;;;;;13.60;36.51;98295.75;4468196;32;34260;-81
2022/04/22 04:31:17;;;;;;;;;;;;;;;13.68;36.59;98292.16;4471288;32;34555;-83
2022/04/22 04:33:44;;;;;;;;;;;;;;;13.76;36.24;98301.59;4465828;32;33030;-83
2022/04/22 04:36:16;;;;;;;;;;;;;;;13.84;36.22;98306.69;4467269;32;34122;-83
2022/04/22 04:38:43;;;;;;;;;;;;;;;13.55;36.75;98305.34;4466013;32;34486;-83
2022/04/22 04:41:13;;;;;;;;;;;;;;;13.78;36.40;98298.94;4467029;32;34920;-83
2022/04/22 04:43:41;;;;;;;;;;;;;;;14.04;35.62;98301.19;4458431;32;33507;-83
2022/04/22 04:46:08;;;;;;;;;;;;;;;13.87;36.07;98301.44;4467016;32;35361;-82
2022/04/22 04:48:36;;;;;;;;;;;;;;;13.75;36.92;98301.59;4467218;32;34079;-83
2022/04/22 04:51:04;;;;;;;;;;;;;;;14.30;35.98;98298.19;4466192;32;34632;-81
2022/04/22 04:53:32;;;;;;;;;;;;;;;14.45;35.64;98305.75;4472368;32;33273;-82
2022/04/22 04:55:59;;;;;;;;;;;;;;;14.26;35.92;98301.72;4481587;32;34993;-81
2022/04/22 04:58:26;;;;;;;;;;;;;;;14.18;36.33;98295.78;4481625;32;32288;-81
2022/04/22 05:00:55;;;;;;;;;;;;;;;14.50;35.89;98296.13;4482303;32;34257;-81
2022/04/22 05:03:22;;;;;;;;;;;;;;;14.22;36.63;98302.66;4482915;32;34272;-80
2022/04/22 05:05:49;;;;;;;;;;;;;;;13.94;37.23;98304.81;4482975;32;35125;-82
2022/04/22 05:08:17;;;;;;;;;;;;;;;14.14;36.99;98312.34;4468603;32;34817;-82
2022/04/22 05:10:44;;;;;;;;;;;;;;;14.54;36.49;98313.44;4481994;32;34058;-81
2022/04/22 05:13:11;;;;;;;;;;;;;;;14.61;36.26;98314.22;4483357;32;33873;-82
2022/04/22 05:15:39;;;;;;;;;;;;;;;14.30;36.55;98313.81;4482716;32;33549;-81
2022/04/22 05:18:06;;;;;;;;;;;;;;;14.20;37.12;98312.22;4483395;32;35344;-81
2022/04/22 05:20:34;;;;;;;;;;;;;;;14.57;35.94;98313.41;4483271;32;34708;-81
2022/04/22 05:23:01;;;;;;;;;;;;;;;14.66;35.67;98311.50;4477152;32;33340;-81
2022/04/22 05:25:29;;;;;;;;;;;;;;;14.71;35.33;98317.53;4467286;32;34203;-80
2022/04/22 05:27:56;;;;;;;;;;;;;;;14.12;36.38;98325.38;4482198;32;35341;-81
2022/04/22 05:33:10;;;;;;;;;;;;;;;14.28;36.21;98315.56;4482575;32;33255;-80
2022/04/22 05:35:38;;;;;;;;;;;;;;;15.13;34.73;98309.81;4470995;32;33919;-81
2022/04/22 05:38:06;;;;;;;;;;;;;;;15.29;34.38;98313.81;4473065;32;35270;-83
2022/04/22 05:40:34;;;;;;;;;;;;;;;15.04;34.48;98318.69;4483053;32;35016;-83
2022/04/22 05:43:02;;;;;;;;;;;;;;;15.71;33.60;98311.25;4482361;32;33029;-82
2022/04/22 05:45:30;;;;;;;;;;;;;;;16.07;33.26;98312.19;4468995;32;34133;-82
2022/04/22 05:47:57;;;;;;;;;;;;;;;16.06;33.15;98297.38;4483193;32;34419;-82
2022/04/22 05:50:25;;;;;;;;;;;;;;;15.24;33.97;98305.22;4481614;32;34303;-82
2022/04/22 05:52:53;;;;;;;;;;;;;;;14.14;36.38;98307.13;4482565;32;34253;-83
2022/04/22 05:55:21;;;;;;;;;;;;;;;14.53;35.56;98296.06;4483048;32;33905;-81
2022/04/22 05:57:49;;;;;;;;;;;;;;;15.28;34.14;98288.59;4482838;32;35332;-82
2022/04/22 06:00:16;;;;;;;;;;;;;;;14.63;35.46;98294.19;4482840;32;34384;-82
2022/04/22 06:02:44;;;;;;;;;;;;;;;15.31;35.10;98292.03;4482996;32;33687;-81
2022/04/22 06:05:12;;;;;;;;;;;;;;;13.91;36.48;98299.66;4483037;32;34080;-81
2022/04/22 06:07:40;;;;;;;;;;;;;;;14.11;36.42;98303.69;4468654;32;34401;-82
2022/04/22 06:12:54;;;;;;;;;;;;;;;15.23;34.92;98293.06;4470761;32;33448;-82
2022/04/22 06:15:22;;;;;;;;;;;;;;;14.46;36.27;98286.59;4468607;32;34851;-82
2022/04/22 06:17:49;;;;;;;;;;;;;;;13.97;36.88;98292.59;4468464;32;34296;-82
2022/04/22 06:20:16;;;;;;;;;;;;;;;13.63;37.58;98293.06;4468424;32;34191;-82
2022/04/22 06:22:44;;;;;;;;;;;;;;;13.91;37.07;98292.69;4482519;32;33138;-82
2022/04/22 06:25:11;;;;;;;;;;;;;;;14.22;36.42;98295.69;4482552;32;34252;-82
2022/04/22 06:27:39;;;;;;;;;;;;;;;13.99;36.66;98288.22;4468343;32;34913;-82
2022/04/22 06:30:08;;;;;;;;;;;;;;;14.42;36.08;98274.50;4468650;32;33981;-82
2022/04/22 06:32:36;;;;;;;;;;;;;;;14.08;36.48;98285.47;4482886;32;34018;-82
2022/04/22 06:35:04;;;;;;;;;;;;;;;14.28;36.31;98272.16;4470241;32;33953;-81
2022/04/22 06:37:35;;;;;;;;;;;;;;;13.71;37.28;98286.91;4470353;32;35387;-82
2022/04/22 06:45:48;;;;;;;;;;;;;;;13.77;37.37;98266.84;4484014;32;34389;-83
2022/04/22 06:48:16;;;;;;;;;;;;;;;14.64;35.79;98263.75;4471255;32;33936;-83
2022/04/22 06:51:06;;;;;;;;;;;;;;;14.36;36.51;98267.66;4472296;32;35192;-82
2022/04/22 06:53:35;;;;;;;;;;;;;;;14.21;36.48;98273.13;4484127;32;34461;-82
2022/04/22 06:56:03;;;;;;;;;;;;;;;14.29;36.26;98273.00;4484558;32;34756;-82
2022/04/22 06:58:30;;;;;;;;;;;;;;;14.42;35.99;98271.91;4470175;32;33724;-82
2022/04/22 07:00:58;;;;;;;;;;;;;;;14.71;35.25;98267.97;4484021;32;33933;-82
2022/04/22 07:03:25;;;;;;;;;;;;;;;15.33;34.61;98265.84;4484431;32;33771;-82
2022/04/22 07:05:53;;;;;;;;;;;;;;;15.56;34.09;98271.44;4484149;32;34244;-82
2022/04/22 07:08:20;;;;;;;;;;;;;;;14.91;34.97;98265.81;4484038;32;34288;-85
2022/04/22 07:10:48;;;;;;;;;;;;;;;15.19;34.69;98276.59;4484453;32;33417;-83
2022/04/22 07:13:16;;;;;;;;;;;;;;;14.57;35.89;98274.28;4469933;32;33681;-82
2022/04/22 07:15:45;;;;;;;;;;;;;;;15.09;34.91;98270.69;4484074;32;33732;-83
2022/04/22 07:18:12;;;;;;;;;;;;;;;14.40;36.20;98273.69;4470109;32;34838;-82
2022/04/22 07:20:39;;;;;;;;;;;;;;;14.35;36.10;98270.28;4483996;32;34352;-82
2022/04/22 07:23:07;;;;;;;;;;;;;;;14.72;36.54;98272.28;4484145;32;33132;-82
2022/04/22 07:25:35;;;;;;;;;;;;;;;14.27;37.39;98277.38;4484137;32;34418;-82
2022/04/22 07:28:04;;;;;;;;;;;;;;;14.05;37.96;98279.44;4484094;32;34038;-82
2022/04/22 07:30:31;;;;;;;;;;;;;;;14.01;39.74;98285.59;4484020;32;34451;-85
2022/04/22 07:32:59;;;;;;;;;;;;;;;14.86;38.54;98272.91;4470290;32;33105;-82
2022/04/22 07:35:26;;;;;;;;;;;;;;;14.59;39.17;98276.88;4484195;32;33277;-85
2022/04/22 07:37:54;;;;;;;;;;;;;;;14.07;40.29;98275.94;4469844;32;34386;-83
2022/04/22 07:40:21;;;;;;;;;;;;;;;13.72;41.38;98273.00;4483792;32;34267;-84
2022/04/22 07:48:34;;;;;;;;;;;;;;;13.95;42.96;98278.75;4471942;32;34995;-82
2022/04/22 07:51:01;;;;;;;;;;;;;;;13.85;41.90;98269.34;4484073;32;34818;-83
2022/04/22 07:53:28;;;;;;;;;;;;;;;13.42;43.32;98272.53;4469630;32;32967;-82
2022/04/22 07:55:56;;;;;;;;;;;;;;;13.92;43.13;98270.09;4484021;32;33694;-82
2022/04/22 07:58:23;;;;;;;;;;;;;;;13.05;44.58;98269.50;4484092;32;33995;-82
2022/04/22 08:00:51;;;;;;;;;;;;;;;13.69;44.38;98273.91;4483649;32;34578;-83
2022/04/22 08:03:18;;;;;;;;;;;;;;;13.70;43.92;98280.81;4483900;32;34333;-83
2022/04/22 08:05:45;;;;;;;;;;;;;;;13.07;45.39;98273.81;4483883;32;33870;-82
2022/04/22 08:08:12;;;;;;;;;;;;;;;12.87;46.77;98270.53;4483782;32;35176;-83
2022/04/22 08:10:40;;;;;;;;;;;;;;;12.71;46.57;98274.19;4483850;32;35038;-82
2022/04/22 08:13:07;;;;;;;;;;;;;;;13.29;45.68;98278.75;4483878;32;33288;-83
2022/04/22 08:15:34;;;;;;;;;;;;;;;13.19;45.71;98277.16;4483714;32;34173;-83
2022/04/22 08:18:02;;;;;;;;;;;;;;;12.90;48.00;98271.37;4483583;32;35203;-83
2022/04/22 08:20:31;;;;;;;;;;;;;;;13.28;46.36;98270.09;4483679;32;34330;-83
2022/04/22 08:22:59;;;;;;;;;;;;;;;13.17;47.93;98264.13;4469601;32;34090;-85
2022/04/22 08:25:27;;;;;;;;;;;;;;;12.81;49.20;98271.50;4483779;32;34623;-82
2022/04/22 08:27:54;;;;;;;;;;;;;;;12.81;49.78;98266.28;4483584;32;34200;-83
2022/04/22 08:30:21;;;;;;;;;;;;;;;13.19;48.27;98264.13;4483601;32;34517;-84
2022/04/22 08:32:49;;;;;;;;;;;;;;;13.40;48.72;98256.06;4483507;32;33692;-82
2022/04/22 08:35:16;;;;;;;;;;;;;;;12.65;50.94;98264.69;4483641;32;34043;-83
2022/04/22 08:37:44;;;;;;;;;;;;;;;13.18;51.32;98270.19;4483659;32;35346;-83
2022/04/22 08:40:12;;;;;;;;;;;;;;;12.58;52.04;98261.31;4483484;32;34297;-83
2022/04/22 08:42:40;;;;;;;;;;;;;;;13.77;49.64;98251.22;4483857;32;33471;-82
2022/04/22 08:45:10;;;;;;;;;;;;;;;13.29;51.19;98253.59;4483613;32;34154;-82
2022/04/22 08:50:30;;;;;;;;;;;;;;;14.04;49.76;98238.63;4483696;32;34142;-82
2022/04/22 08:53:03;;;;;;;;;;;;;;;13.16;51.93;98236.38;4483621;31;33621;-84
2022/04/22 08:55:30;;;;;;;;;;;;;;;12.99;53.04;98243.53;4469333;32;34174;-82
2022/04/22 08:57:58;;;;;;;;;;;;;;;12.97;53.54;98233.16;4482463;32;35281;-85
2022/04/22 09:00:27;;;;;;;;;;;;;;;12.43;55.76;98227.69;4483340;32;34969;-84
2022/04/22 09:02:54;;;;;;;;;;;;;;;12.32;56.06;98235.56;4483583;32;32528;-82
2022/04/22 09:05:22;;;;;;;;;;;;;;;12.18;58.19;98227.03;4483425;32;34009;-85
2022/04/22 09:07:49;;;;;;;;;;;;;;;12.30;58.07;98216.50;4483506;32;34497;-82
2022/04/22 09:10:17;;;;;;;;;;;;;;;12.97;57.35;98203.69;4469225;32;34364;-82
2022/04/22 09:12:54;;;;;;;;;;;;;;;12.84;57.87;98209.03;4483456;32;33633;-85
2022/04/22 09:15:23;;;;;;;;;;;;;;;12.67;59.21;98210.94;4483166;32;33992;-84
2022/04/22 09:17:55;;;;;;;;;;;;;;;12.69;58.56;98205.72;4483038;32;34319;-84
2022/04/22 09:20:23;;;;;;;;;;;;;;;12.70;59.43;98199.66;4483173;32;34460;-84
2022/04/22 09:22:50;;;;;;;;;;;;;;;12.72;59.64;98198.75;4469123;32;33858;-82
2022/04/22 09:25:25;;;;;;;;;;;;;;;12.49;60.49;98190.34;4483194;32;34848;-85
2022/04/22 09:27:52;;;;;;;;;;;;;;;12.47;60.27;98187.78;4483452;32;34146;-83
2022/04/22 09:30:30;;;;;;;;;;;;;;;12.77;60.64;98181.38;4469834;32;34204;-82
2022/04/22 09:32:58;;;;;;;;;;;;;;;13.53;57.44;98184.72;4483348;32;34141;-82
2022/04/22 09:35:27;;;;;;;;;;;;;;;12.87;60.38;98182.09;4483291;32;34319;-82
2022/04/22 09:43:39;;;;;;;;;;;;;;;14.06;56.08;98156.09;4483277;32;32868;-82
2022/04/22 09:46:32;;;;;;;;;;;;;;;13.56;57.77;98147.34;4482916;32;34318;-84
2022/04/22 09:48:59;;;;;;;;;;;;;;;12.95;58.85;98164.66;4483028;32;33287;-82
2022/04/22 09:51:28;;;;;;;;;;;;;;;12.65;61.33;98160.69;4482968;32;33936;-82
2022/04/22 09:54:22;;;;;;;;;;;;;;;13.01;59.85;98159.38;4468689;32;33563;-82
2022/04/22 09:56:56;;;;;;;;;;;;;;;13.52;58.99;98158.69;4479914;32;34400;-81
2022/04/22 09:59:24;;;;;;;;;;;;;;;13.22;59.49;98166.06;4482830;32;33859;-82
2022/04/22 10:01:51;;;;;;;;;;;;;;;12.61;61.75;98159.00;4456202;32;33620;-82
2022/04/22 10:04:28;;;;;;;;;;;;;;;12.72;60.81;98164.94;4482983;32;34357;-83
2022/04/22 10:06:56;;;;;;;;;;;;;;;12.60;61.62;98175.50;4468770;32;35106;-82
2022/04/22 10:09:23;;;;;;;;;;;;;;;12.80;60.28;98164.84;4482217;32;35199;-82
2022/04/22 10:11:52;;;;;;;;;;;;;;;12.85;60.87;98165.66;4482712;32;34194;-82
2022/04/22 10:14:20;;;;;;;;;;;;;;;13.18;60.32;98156.53;4468577;32;34371;-82
2022/04/22 10:16:48;;;;;;;;;;;;;;;13.04;60.95;98154.16;4468578;32;34873;-85
2022/04/22 10:19:16;;;;;;;;;;;;;;;13.90;58.00;98147.66;4482675;32;34388;-82
2022/04/22 10:21:44;;;;;;;;;;;;;;;13.90;57.93;98142.44;4468379;32;35011;-82
2022/04/22 10:24:13;;;;;;;;;;;;;;;13.40;59.56;98133.69;4468597;32;33238;-82
2022/04/22 10:26:40;;;;;;;;;;;;;;;13.89;57.69;98125.09;4482533;32;34217;-81
2022/04/22 10:29:08;;;;;;;;;;;;;;;14.42;56.60;98133.69;4468275;32;35149;-84
2022/04/22 10:31:35;;;;;;;;;;;;;;;14.31;56.35;98125.22;4468248;32;34482;-83
2022/04/22 10:34:06;;;;;;;;;;;;;;;14.19;56.02;98135.88;4482750;32;33625;-83
2022/04/22 10:36:33;;;;;;;;;;;;;;;13.99;56.03;98129.28;4482312;32;34743;-82
2022/04/22 10:39:01;;;;;;;;;;;;;;;13.56;57.61;98132.59;4482322;32;34506;-84
2022/04/22 10:41:28;;;;;;;;;;;;;;;14.14;56.26;98129.91;4482235;32;35054;-84
2022/04/22 10:49:53;;;;;;;;;;;;;;;14.02;55.86;98107.53;4482098;32;33880;-82
2022/04/22 10:52:22;;;;;;;;;;;;;;;14.39;55.42;98105.06;4482141;32;34183;-83
2022/04/22 10:54:52;;;;;;;;;;;;;;;14.64;55.17;98091.56;4482031;32;32970;-84
2022/04/22 10:57:23;;;;;;;;;;;;;;;15.38;53.38;98099.50;4481999;32;34886;-83
2022/04/22 11:00:04;;;;;;;;;;;;;;;15.74;52.16;98094.28;4482075;32;34363;-82
2022/04/22 11:02:34;;;;;;;;;;;;;;;14.82;54.48;98099.03;4481888;32;34433;-84
2022/04/22 11:05:20;;;;;;;;;;;;;;;15.18;53.23;98091.25;4481862;32;33501;-83
2022/04/22 11:07:58;;;;;;;;;;;;;;;14.33;55.31;98105.19;4468097;32;33736;-82
2022/04/22 11:10:27;;;;;;;;;;;;;;;14.00;56.86;98102.31;4481822;32;33926;-84
2022/04/22 11:12:55;;;;;;;;;;;;;;;14.92;54.04;98094.44;4482213;32;33785;-82
2022/04/22 11:15:41;;;;;;;;;;;;;;;13.76;56.28;98087.13;4482002;32;33136;-82
2022/04/22 11:18:12;;;;;;;;;;;;;;;14.23;55.50;98082.78;4482292;32;33835;-83
2022/04/22 11:20:43;;;;;;;;;;;;;;;14.48;55.47;98084.03;4482991;32;34166;-83
2022/04/22 11:23:13;;;;;;;;;;;;;;;14.06;56.09;98091.78;4484045;32;34287;-82
2022/04/22 11:25:41;;;;;;;;;;;;;;;13.87;56.47;98091.25;4484223;32;33678;-85
2022/04/22 11:28:09;;;;;;;;;;;;;;;14.03;55.85;98086.63;4482690;32;34986;-81
2022/04/22 11:30:36;;;;;;;;;;;;;;;14.41;53.92;98072.00;4483340;32;34204;-82
2022/04/22 11:33:16;;;;;;;;;;;;;;;14.24;54.12;98074.06;4469456;32;34237;-81
2022/04/22 11:35:43;;;;;;;;;;;;;;;13.89;54.04;98070.38;4483774;32;33821;-81
2022/04/22 11:38:13;;;;;;;;;;;;;;;14.41;53.29;98066.78;4483957;32;34978;-82
2022/04/22 11:40:40;;;;;;;;;;;;;;;13.92;53.60;98078.16;4483683;32;34131;-82
2022/04/22 11:43:27;;;;;;;;;;;;;;;13.45;54.92;98076.34;4483704;32;34060;-82
2022/04/22 11:45:54;;;;;;;;;;;;;;;13.55;55.95;98078.78;4482476;32;33211;-80
2022/04/22 11:48:22;;;;;;;;;;;;;;;13.70;53.03;98066.38;4469252;32;33869;-85
2022/04/22 11:50:50;;;;;;;;;;;;;;;14.04;53.07;98075.31;4483438;32;34392;-82
2022/04/22 11:53:34;;;;;;;;;;;;;;;14.15;52.27;98063.84;4483839;31;35343;-81
2022/04/22 11:56:02;;;;;;;;;;;;;;;14.93;50.48;98052.66;4470584;32;33714;-80
2022/04/22 11:58:29;;;;;;;;;;;;;;;14.06;52.21;98051.84;4484144;32;34376;-81
2022/04/22 12:06:37;;;;;;;;;;;;;;;14.60;48.78;98031.62;4483058;32;34080;-80
2022/04/22 12:09:06;;;;;;;;;;;;;;;14.88;49.58;98024.94;4483727;32;35064;-80
2022/04/22 12:11:41;;;;;;;;;;;;;;;15.56;47.19;98022.41;4483672;32;34471;-78
2022/04/22 12:14:09;;;;;;;;;;;;;;;15.74;46.83;98028.97;4469926;32;33776;-81
2022/04/22 12:16:38;;;;;;;;;;;;;;;15.30;46.61;98018.72;4482169;32;33052;-82
2022/04/22 12:19:06;;;;;;;;;;;;;;;15.29;46.61;98008.31;4483482;32;34933;-81
2022/04/22 12:21:34;;;;;;;;;;;;;;;15.29;44.73;98005.69;4469639;32;34307;-82
2022/04/22 12:24:04;;;;;;;;;;;;;;;15.41;45.21;98000.16;4469554;32;34163;-82
2022/04/22 12:26:47;;;;;;;;;;;;;;;15.66;43.75;97994.34;4483515;32;33532;-81
2022/04/22 12:29:14;;;;;;;;;;;;;;;15.41;43.60;97989.72;4483213;32;34030;-80
2022/04/22 12:31:52;;;;;;;;;;;;;;;15.34;44.34;97990.75;4483393;32;34546;-81
2022/04/22 12:34:30;;;;;;;;;;;;;;;15.31;43.50;97998.69;4483217;32;34158;-81
2022/04/22 12:36:58;;;;;;;;;;;;;;;15.61;42.04;97993.56;4469205;32;32878;-80
2022/04/22 12:39:35;;;;;;;;;;;;;;;15.54;42.75;97998.97;4467050;32;34372;-80
2022/04/22 12:42:04;;;;;;;;;;;;;;;15.61;43.08;98001.41;4475882;32;35338;-80
2022/04/22 12:44:31;;;;;;;;;;;;;;;16.22;41.71;97997.16;4453764;32;34428;-79
2022/04/22 12:52:44;;;;;;;;;;;;;;;15.51;40.60;97980.75;4483180;32;34604;-79
2022/04/22 12:55:12;;;;;;;;;;;;;;;15.57;41.60;97980.59;4482685;32;34262;-81
2022/04/22 12:57:40;;;;;;;;;;;;;;;15.34;41.45;97975.09;4465290;32;33919;-80
2022/04/22 13:00:17;;;;;;;;;;;;;;;15.41;41.67;97979.25;4483444;32;34823;-83
2022/04/22 13:03:04;;;;;;;;;;;;;;;15.33;40.59;97981.22;4471327;32;32878;-80
2022/04/22 13:05:32;;;;;;;;;;;;;;;16.01;40.30;97964.63;4483315;32;34063;-85
2022/04/22 13:08:07;;;;;;;;;;;;;;;15.97;39.72;97968.22;4483170;32;34288;-80
2022/04/22 13:10:36;;;;;;;;;;;;;;;15.37;40.47;97964.56;4482403;32;34038;-80
2022/04/22 13:13:09;;;;;;;;;;;;;;;16.06;39.99;97973.19;4479784;32;34340;-79
2022/04/22 13:15:37;;;;;;;;;;;;;;;16.23;38.44;97970.97;4483116;32;34127;-80
2022/04/22 13:18:04;;;;;;;;;;;;;;;15.56;40.46;97964.94;4483252;32;33638;-80
2022/04/22 13:20:31;;;;;;;;;;;;;;;15.46;40.44;97959.13;4483169;32;34775;-80
2022/04/22 13:22:59;;;;;;;;;;;;;;;15.05;40.50;97981.91;4482494;32;34459;-79
2022/04/22 13:25:26;;;;;;;;;;;;;;;14.91;41.02;97963.09;4483079;32;34111;-79
2022/04/22 13:27:53;;;;;;;;;;;;;;;15.66;40.23;97963.00;4483133;32;32937;-80
2022/04/22 13:30:21;;;;;;;;;;;;;;;15.46;40.17;97963.50;4468442;32;33984;-80
2022/04/22 13:32:48;;;;;;;;;;;;;;;15.01;40.83;97955.94;4482821;32;35174;-79
2022/04/22 13:35:15;;;;;;;;;;;;;;;15.69;39.38;97962.91;4482921;32;34577;-81
2022/04/22 13:37:43;;;;;;;;;;;;;;;16.03;38.47;97955.00;4482812;32;33551;-79
2022/04/22 13:40:10;;;;;;;;;;;;;;;15.96;37.96;97949.06;4481991;32;35036;-81
2022/04/22 13:42:37;;;;;;;;;;;;;;;15.85;39.01;97950.28;4481545;32;34298;-80
2022/04/22 13:53:23;;;;;;;;;;;;;;;16.20;37.76;97949.28;4482849;32;33871;-80
2022/04/22 13:55:50;;;;;;;;;;;;;;;16.56;36.53;97951.69;4483013;32;34556;-80
2022/04/22 13:58:17;;;;;;;;;;;;;;;16.09;37.27;97951.34;4482999;32;33548;-80
2022/04/22 14:00:45;;;;;;;;;;;;;;;15.08;39.36;97945.28;4468755;32;35019;-81
2022/04/22 14:03:12;;;;;;;;;;;;;;;15.57;38.76;97933.59;4468541;32;34014;-81
2022/04/22 14:05:40;;;;;;;;;;;;;;;15.29;39.14;97945.63;4483015;32;34231;-81
2022/04/22 14:08:07;;;;;;;;;;;;;;;14.74;39.87;97923.53;4482909;32;33485;-81